Veuillez saisir l'adresse e-mail associée à votre compte d'utilisateur. Un code de vérification vous sera adressé. Lorsque vous le recevrez, vous pourrez choisir un nouveau mot de passe

METAR TAF

[Source: ADDS]
METAR
LFCR 022230Z AUTO 28011KT 9999 FEW029 14/12 Q1022 NOSIG =
LFCR 021700Z 0218/0318 30013KT 9999 BKN040 TEMPO 0222/0301 30006KT BECMG 0304/0306 CAVOK LFBA 022230Z AUTO 29007KT CAVOK 17/12 Q1022 =
LFBA 021400Z 0215/0224 29007KT 9999 BKN045 LFSL 022230Z AUTO 31004KT 280V340 9999 SCT046 15/11 Q1021 =
LFSL 021400Z 0215/0224 31007KT CAVOK LFLW 022230Z AUTO VRB03KT CAVOK 13/11 Q1022 =
LFLW 021400Z 0215/0224 31008KT 9999 BKN035 TEMPO 0218/0221 CAVOK
TAF
LFCR 021700Z 0218/0318 30013KT 9999 BKN040 TEMPO 0222/0301 30006KT BECMG 0304/0306 CAVOK =
LFBA 021400Z 0215/0224 29007KT 9999 BKN045 =
LFSL 021400Z 0215/0224 31007KT CAVOK =
LFLW 021400Z 0215/0224 31008KT 9999 BKN035 TEMPO 0218/0221 CAVOK =
SR / SS: 04:14 / 19:41 UTC (LFCC 2020-07-02)